createdAt,value
2023-01-09T00:00:12.444Z,34.49
2023-01-09T00:00:42.562Z,34.48
2023-01-09T00:01:12.593Z,34.46
2023-01-09T00:01:42.625Z,34.49
2023-01-09T00:02:12.682Z,34.42
2023-01-09T00:02:42.724Z,34.45
2023-01-09T00:03:12.735Z,34.43
2023-01-09T00:03:42.969Z,34.48
2023-01-09T00:04:12.893Z,34.46
2023-01-09T00:04:42.933Z,34.43
2023-01-09T00:05:12.955Z,34.48
2023-01-09T00:05:43.008Z,34.46
2023-01-09T00:06:13.017Z,34.45
2023-01-09T00:06:43.044Z,34.43
2023-01-09T00:07:13.072Z,34.43
2023-01-09T00:07:43.137Z,34.47
2023-01-09T00:08:13.138Z,34.43
2023-01-09T00:08:43.173Z,34.43
2023-01-09T00:09:13.198Z,34.41
2023-01-09T00:09:43.230Z,34.45
2023-01-09T00:10:13.255Z,34.45
2023-01-09T00:10:43.313Z,34.38
2023-01-09T00:11:13.345Z,34.35
2023-01-09T00:11:43.367Z,34.38
2023-01-09T00:12:13.387Z,34.37
2023-01-09T00:12:43.412Z,34.38
2023-01-09T00:13:13.438Z,34.31
2023-01-09T00:13:43.459Z,34.31
2023-01-09T00:14:13.482Z,34.30
2023-01-09T00:14:43.511Z,34.30
2023-01-09T00:15:13.552Z,34.29
2023-01-09T00:15:43.639Z,34.26
2023-01-09T00:16:13.652Z,34.25
2023-01-09T00:16:43.753Z,34.22
2023-01-09T00:17:13.795Z,34.17
2023-01-09T00:17:43.826Z,34.19
2023-01-09T00:18:13.855Z,34.20
2023-01-09T00:18:43.901Z,34.16
2023-01-09T00:19:14.043Z,34.17
2023-01-09T00:19:43.907Z,34.19
2023-01-09T00:20:13.930Z,34.19
2023-01-09T00:20:43.980Z,34.16
2023-01-09T00:21:14.001Z,34.13
2023-01-09T00:21:44.027Z,34.15
2023-01-09T00:22:14.046Z,34.08
2023-01-09T00:22:44.074Z,34.15
2023-01-09T00:23:14.095Z,34.10
2023-01-09T00:23:44.128Z,34.08
2023-01-09T00:24:14.146Z,34.12
2023-01-09T00:24:44.168Z,34.12
2023-01-09T00:25:14.206Z,34.09
2023-01-09T00:25:44.259Z,34.10
2023-01-09T00:26:14.292Z,34.15
2023-01-09T00:26:44.342Z,34.06
2023-01-09T00:27:14.357Z,34.11
2023-01-09T00:27:44.378Z,34.09
2023-01-09T00:28:14.403Z,34.12
2023-01-09T00:28:44.449Z,34.11
2023-01-09T00:29:14.517Z,34.15
2023-01-09T00:29:44.520Z,34.08
2023-01-09T00:30:14.552Z,34.11
2023-01-09T00:30:44.643Z,34.16
2023-01-09T00:31:14.651Z,34.18
2023-01-09T00:31:44.682Z,34.12
2023-01-09T00:32:14.718Z,34.18
2023-01-09T00:32:44.739Z,34.16
2023-01-09T00:33:14.766Z,34.18
2023-01-09T00:33:44.811Z,34.16
2023-01-09T00:34:14.812Z,34.18
2023-01-09T00:34:44.867Z,34.21
2023-01-09T00:35:14.867Z,34.21
2023-01-09T00:35:44.931Z,34.26
2023-01-09T00:36:14.961Z,34.25
2023-01-09T00:36:45.002Z,34.25
2023-01-09T00:37:15.011Z,34.19
2023-01-09T00:37:45.037Z,34.25
2023-01-09T00:38:15.065Z,34.26
2023-01-09T00:38:45.101Z,34.22
2023-01-09T00:39:15.143Z,34.25
2023-01-09T00:39:45.169Z,34.29
2023-01-09T00:40:15.206Z,34.30
2023-01-09T00:40:45.250Z,34.27
2023-01-09T00:41:15.273Z,34.36
2023-01-09T00:41:45.295Z,34.34
2023-01-09T00:42:15.321Z,34.33
2023-01-09T00:42:45.361Z,34.36
2023-01-09T00:43:15.392Z,34.27
2023-01-09T00:43:45.414Z,34.34
2023-01-09T00:44:15.418Z,34.30
2023-01-09T00:44:45.547Z,34.31
2023-01-09T00:45:15.643Z,34.37
2023-01-09T00:45:45.688Z,34.32
2023-01-09T00:46:15.810Z,34.37
2023-01-09T00:46:45.693Z,34.34
2023-01-09T00:47:15.808Z,34.37
2023-01-09T00:47:45.790Z,34.36
2023-01-09T00:48:15.917Z,34.40
2023-01-09T00:48:46.014Z,34.40
2023-01-09T00:49:16.125Z,34.32
2023-01-09T00:49:46.257Z,34.43
2023-01-09T00:50:16.323Z,34.40
2023-01-09T00:50:46.293Z,34.37
2023-01-09T00:51:16.317Z,34.41
2023-01-09T00:51:46.308Z,34.40
2023-01-09T00:52:16.416Z,34.44
2023-01-09T00:52:46.534Z,34.40
2023-01-09T00:53:16.647Z,34.44
2023-01-09T00:53:46.759Z,34.40
2023-01-09T00:54:16.771Z,34.37
2023-01-09T00:54:46.800Z,34.44
2023-01-09T00:55:16.819Z,34.45
2023-01-09T00:55:46.870Z,34.45
2023-01-09T00:56:16.890Z,34.41
2023-01-09T00:56:46.931Z,34.39
2023-01-09T00:57:16.940Z,34.43
2023-01-09T00:57:46.965Z,34.47
2023-01-09T00:58:16.993Z,34.45
2023-01-09T00:58:47.017Z,34.49
2023-01-09T00:59:17.040Z,34.43
2023-01-09T00:59:47.063Z,34.45
2023-01-09T01:00:17.101Z,34.49
2023-01-09T01:00:47.299Z,34.49
2023-01-09T01:01:17.280Z,34.45
2023-01-09T01:01:47.373Z,34.52
2023-01-09T01:02:17.569Z,34.52
2023-01-09T01:02:47.388Z,34.52
2023-01-09T01:03:17.387Z,34.51
2023-01-09T01:03:47.424Z,34.52
2023-01-09T01:04:17.448Z,34.52
2023-01-09T01:04:47.471Z,34.54
2023-01-09T01:05:17.499Z,34.54
2023-01-09T01:05:47.566Z,34.51
2023-01-09T01:06:17.571Z,34.53
2023-01-09T01:06:47.602Z,34.52
2023-01-09T01:07:17.630Z,34.52
2023-01-09T01:07:47.661Z,34.51
2023-01-09T01:08:17.671Z,34.50
2023-01-09T01:08:47.698Z,34.55
2023-01-09T01:09:17.724Z,34.51
2023-01-09T01:09:47.746Z,34.53
2023-01-09T01:10:17.794Z,34.51
2023-01-09T01:10:47.805Z,34.48
2023-01-09T01:11:17.828Z,34.48
2023-01-09T01:11:47.866Z,34.52
2023-01-09T01:12:17.883Z,34.45
2023-01-09T01:12:47.904Z,34.49
2023-01-09T01:13:17.923Z,34.47
2023-01-09T01:13:47.954Z,34.45
2023-01-09T01:14:17.984Z,34.48
2023-01-09T01:14:48.016Z,34.47
2023-01-09T01:15:18.048Z,34.47
2023-01-09T01:15:48.066Z,34.41
2023-01-09T01:16:18.179Z,34.43
2023-01-09T01:16:48.187Z,34.43
2023-01-09T01:17:18.226Z,34.47
2023-01-09T01:17:48.250Z,34.44
2023-01-09T01:18:18.272Z,34.48
2023-01-09T01:18:48.295Z,34.47
2023-01-09T01:19:18.315Z,34.43
2023-01-09T01:19:48.355Z,34.44
2023-01-09T01:20:18.397Z,34.45
2023-01-09T01:20:48.420Z,34.44
2023-01-09T01:21:18.461Z,34.47
2023-01-09T01:21:48.474Z,34.48
2023-01-09T01:22:18.496Z,34.40
2023-01-09T01:22:48.520Z,34.42
2023-01-09T01:23:18.552Z,34.48
2023-01-09T01:23:48.567Z,34.45
2023-01-09T01:24:18.623Z,34.46
2023-01-09T01:24:48.647Z,34.47
2023-01-09T01:25:18.679Z,34.46
2023-01-09T01:25:48.821Z,34.45
2023-01-09T01:26:18.725Z,34.44
2023-01-09T01:26:48.749Z,34.41
2023-01-09T01:27:18.774Z,34.45
2023-01-09T01:27:48.810Z,34.48
2023-01-09T01:28:18.835Z,34.45
2023-01-09T01:28:48.856Z,34.47
2023-01-09T01:29:18.892Z,34.49
2023-01-09T01:29:48.913Z,34.41
2023-01-09T01:30:18.930Z,34.51
2023-01-09T01:30:49.027Z,34.45
2023-01-09T01:31:19.053Z,34.45
2023-01-09T01:31:49.083Z,34.49
2023-01-09T01:32:19.101Z,34.43
2023-01-09T01:32:49.147Z,34.45
2023-01-09T01:33:19.178Z,34.49
2023-01-09T01:33:49.212Z,34.43
2023-01-09T01:34:19.228Z,34.51
2023-01-09T01:34:49.265Z,34.45
2023-01-09T01:35:19.306Z,34.45
2023-01-09T01:35:49.325Z,34.45
2023-01-09T01:36:19.353Z,34.45
2023-01-09T01:36:49.409Z,34.47
2023-01-09T01:37:19.411Z,34.45
2023-01-09T01:37:49.449Z,34.43
2023-01-09T01:38:19.455Z,34.41
2023-01-09T01:38:49.491Z,34.43
2023-01-09T01:39:19.511Z,34.49
2023-01-09T01:39:49.538Z,34.47
2023-01-09T01:40:19.554Z,34.44
2023-01-09T01:40:49.593Z,34.45
2023-01-09T01:41:19.614Z,34.45
2023-01-09T01:41:49.659Z,34.51
2023-01-09T01:42:19.694Z,34.43
2023-01-09T01:42:49.700Z,34.48
2023-01-09T01:43:19.737Z,34.45
2023-01-09T01:43:49.756Z,34.45
2023-01-09T01:44:19.757Z,34.49
2023-01-09T01:44:49.870Z,34.49
2023-01-09T01:45:19.976Z,34.42
2023-01-09T01:45:50.181Z,34.47
2023-01-09T01:46:20.267Z,34.43
2023-01-09T01:46:50.239Z,34.45
2023-01-09T01:47:20.358Z,34.43
2023-01-09T01:47:50.474Z,34.41
2023-01-09T01:48:20.584Z,34.49
2023-01-09T01:48:50.573Z,34.44
2023-01-09T01:49:20.681Z,34.42
2023-01-09T01:49:50.672Z,34.47
2023-01-09T01:50:20.792Z,34.42
2023-01-09T01:50:50.898Z,34.41
2023-01-09T01:51:21.014Z,34.46
2023-01-09T01:51:51.145Z,34.45
2023-01-09T01:52:21.248Z,34.42
2023-01-09T01:52:51.240Z,34.35
2023-01-09T01:53:21.348Z,34.32
2023-01-09T01:53:51.458Z,34.37
2023-01-09T01:54:21.473Z,34.37
2023-01-09T01:54:51.501Z,34.37
2023-01-09T01:55:21.546Z,34.33
2023-01-09T01:55:51.561Z,34.33
2023-01-09T01:56:21.589Z,34.35
2023-01-09T01:56:51.608Z,34.27
2023-01-09T01:57:21.652Z,34.30
2023-01-09T01:57:51.667Z,34.31
2023-01-09T01:58:21.701Z,34.26
2023-01-09T01:58:51.747Z,34.27
2023-01-09T01:59:21.772Z,34.27
2023-01-09T01:59:51.802Z,34.25
2023-01-09T02:00:21.838Z,34.25
2023-01-09T02:00:51.934Z,34.21
2023-01-09T02:01:22.079Z,34.19
2023-01-09T02:01:52.170Z,34.20
2023-01-09T02:02:22.272Z,34.19
2023-01-09T02:02:52.261Z,34.20
2023-01-09T02:03:22.263Z,34.15
2023-01-09T02:03:52.298Z,34.18
2023-01-09T02:04:22.329Z,34.15
2023-01-09T02:04:52.357Z,34.16
2023-01-09T02:05:22.565Z,34.13
2023-01-09T02:05:52.478Z,34.15
2023-01-09T02:06:22.501Z,34.16
2023-01-09T02:06:52.521Z,34.12
2023-01-09T02:07:22.593Z,34.13
2023-01-09T02:07:52.597Z,34.13
2023-01-09T02:08:22.617Z,34.18
2023-01-09T02:08:52.658Z,34.16
2023-01-09T02:09:22.699Z,34.18
2023-01-09T02:09:52.718Z,34.18
2023-01-09T02:10:22.749Z,34.17
2023-01-09T02:10:52.786Z,34.18
2023-01-09T02:11:22.818Z,34.18
2023-01-09T02:11:52.834Z,34.21
2023-01-09T02:12:22.865Z,34.25
2023-01-09T02:12:52.895Z,34.22
2023-01-09T02:13:22.917Z,34.26
2023-01-09T02:13:52.952Z,34.26
2023-01-09T02:14:22.976Z,34.29
2023-01-09T02:14:52.991Z,34.26
2023-01-09T02:15:23.016Z,34.29
2023-01-09T02:15:53.099Z,34.24
2023-01-09T02:16:23.144Z,34.34
2023-01-09T02:16:53.164Z,34.31
2023-01-09T02:17:23.204Z,34.30
2023-01-09T02:17:53.223Z,34.30
2023-01-09T02:18:23.257Z,34.33
2023-01-09T02:18:53.303Z,34.30
2023-01-09T02:19:23.315Z,34.33
2023-01-09T02:19:53.346Z,34.38
2023-01-09T02:20:23.383Z,34.38
2023-01-09T02:20:53.414Z,34.37
2023-01-09T02:21:23.443Z,34.38
2023-01-09T02:21:53.465Z,34.40
2023-01-09T02:22:23.489Z,34.38
2023-01-09T02:22:53.538Z,34.38
2023-01-09T02:23:23.545Z,34.37
2023-01-09T02:23:53.564Z,34.38
2023-01-09T02:24:23.604Z,34.38
2023-01-09T02:24:53.630Z,34.42
2023-01-09T02:25:23.798Z,34.44
2023-01-09T02:25:53.713Z,34.41
2023-01-09T02:26:23.726Z,34.46
2023-01-09T02:26:53.751Z,34.41
2023-01-09T02:27:23.778Z,34.46
2023-01-09T02:27:53.796Z,34.43
2023-01-09T02:28:23.831Z,34.41
2023-01-09T02:28:53.844Z,34.42
2023-01-09T02:29:23.885Z,34.45
2023-01-09T02:29:53.899Z,34.41
2023-01-09T02:30:23.998Z,34.44
2023-01-09T02:30:54.021Z,34.48
2023-01-09T02:31:24.123Z,34.44
2023-01-09T02:31:54.168Z,34.44
2023-01-09T02:32:24.078Z,34.46
2023-01-09T02:32:54.101Z,34.49
2023-01-09T02:33:24.129Z,34.45
2023-01-09T02:33:54.168Z,34.48
2023-01-09T02:34:24.187Z,34.44
2023-01-09T02:34:54.216Z,34.42
2023-01-09T02:35:24.241Z,34.47
2023-01-09T02:35:54.279Z,34.45
2023-01-09T02:36:24.323Z,34.53
2023-01-09T02:36:54.329Z,34.48
2023-01-09T02:37:24.358Z,34.49
2023-01-09T02:37:54.390Z,34.48
2023-01-09T02:38:24.444Z,34.48
2023-01-09T02:38:54.441Z,34.47
2023-01-09T02:39:24.464Z,34.42
2023-01-09T02:39:54.515Z,34.49
2023-01-09T02:40:24.548Z,34.49
2023-01-09T02:40:54.570Z,34.52
2023-01-09T02:41:24.603Z,34.47
2023-01-09T02:41:54.633Z,34.49
2023-01-09T02:42:24.654Z,34.48
2023-01-09T02:42:54.685Z,34.51
2023-01-09T02:43:24.710Z,34.51
2023-01-09T02:43:54.742Z,34.48
2023-01-09T02:44:24.842Z,34.52
2023-01-09T02:44:54.960Z,34.54
2023-01-09T02:45:25.087Z,34.49
2023-01-09T02:45:55.148Z,34.53
2023-01-09T02:46:25.113Z,34.48
2023-01-09T02:46:55.222Z,34.51
2023-01-09T02:47:25.335Z,34.46
2023-01-09T02:47:55.454Z,34.52
2023-01-09T02:48:25.567Z,34.52
2023-01-09T02:48:55.675Z,34.52
2023-01-09T02:49:25.790Z,34.49
2023-01-09T02:49:55.897Z,34.53
2023-01-09T02:50:25.904Z,34.52
2023-01-09T02:50:56.013Z,34.55
2023-01-09T02:51:26.018Z,34.55
2023-01-09T02:51:56.118Z,34.56
2023-01-09T02:52:26.236Z,34.46
2023-01-09T02:52:56.349Z,34.52
2023-01-09T02:53:26.361Z,34.52
2023-01-09T02:53:56.463Z,34.53
2023-01-09T02:54:26.497Z,34.53
2023-01-09T02:54:56.499Z,34.59
2023-01-09T02:55:26.533Z,34.56
2023-01-09T02:55:56.576Z,34.53
2023-01-09T02:56:26.594Z,34.53
2023-01-09T02:56:56.617Z,34.53
2023-01-09T02:57:26.644Z,34.56
2023-01-09T02:57:56.671Z,34.52
2023-01-09T02:58:26.702Z,34.58
2023-01-09T02:58:56.726Z,34.59
2023-01-09T02:59:26.761Z,34.53
2023-01-09T02:59:56.785Z,34.58
2023-01-09T03:00:26.812Z,34.55
2023-01-09T03:00:56.998Z,34.59
2023-01-09T03:01:27.036Z,34.60
2023-01-09T03:01:57.117Z,34.53
2023-01-09T03:02:27.045Z,34.56
2023-01-09T03:02:57.142Z,34.53
2023-01-09T03:03:27.159Z,34.58
2023-01-09T03:03:57.181Z,34.59
2023-01-09T03:04:27.203Z,34.54
2023-01-09T03:04:57.227Z,34.59
2023-01-09T03:05:27.258Z,34.50
2023-01-09T03:05:57.287Z,34.53
2023-01-09T03:06:27.782Z,34.55
2023-01-09T03:06:57.330Z,34.49
2023-01-09T03:07:27.367Z,34.52
2023-01-09T03:07:57.389Z,34.52
2023-01-09T03:08:27.414Z,34.43
2023-01-09T03:08:57.463Z,34.45
2023-01-09T03:09:27.490Z,34.45
2023-01-09T03:09:57.515Z,34.45
2023-01-09T03:10:27.538Z,34.41
2023-01-09T03:10:57.571Z,34.42
2023-01-09T03:11:27.602Z,34.47
2023-01-09T03:11:57.652Z,34.41
2023-01-09T03:12:27.662Z,34.34
2023-01-09T03:12:59.046Z,34.38
2023-01-09T03:13:27.740Z,34.36
2023-01-09T03:13:57.766Z,34.37
2023-01-09T03:14:27.795Z,34.36
2023-01-09T03:14:57.827Z,34.33
2023-01-09T03:15:27.839Z,34.27
2023-01-09T03:15:58.067Z,34.32
2023-01-09T03:16:27.885Z,34.23
2023-01-09T03:16:57.891Z,34.29
2023-01-09T03:17:27.919Z,34.23
2023-01-09T03:17:57.948Z,34.23
2023-01-09T03:18:27.977Z,34.25
2023-01-09T03:18:57.999Z,34.18
2023-01-09T03:19:28.033Z,34.19
2023-01-09T03:19:58.067Z,34.20
2023-01-09T03:20:28.095Z,34.23
2023-01-09T03:20:58.129Z,34.23
2023-01-09T03:21:28.151Z,34.20
2023-01-09T03:21:58.179Z,34.19
2023-01-09T03:22:28.200Z,34.19
2023-01-09T03:22:58.275Z,34.19
2023-01-09T03:23:28.298Z,34.18
2023-01-09T03:23:58.315Z,34.19
2023-01-09T03:24:28.359Z,34.25
2023-01-09T03:24:58.363Z,34.22
2023-01-09T03:25:28.393Z,34.20
2023-01-09T03:25:58.420Z,34.21
2023-01-09T03:26:28.443Z,34.25
2023-01-09T03:26:58.468Z,34.25
2023-01-09T03:27:28.520Z,34.22
2023-01-09T03:27:58.532Z,34.26
2023-01-09T03:28:28.549Z,34.20
2023-01-09T03:28:58.579Z,34.21
2023-01-09T03:29:29.603Z,34.25
2023-01-09T03:29:58.721Z,34.24
2023-01-09T03:30:28.758Z,34.25
2023-01-09T03:30:58.788Z,34.33
2023-01-09T03:31:28.846Z,34.27
2023-01-09T03:31:58.887Z,34.27
2023-01-09T03:32:28.913Z,34.29
2023-01-09T03:32:58.964Z,34.33
2023-01-09T03:33:28.967Z,34.29
2023-01-09T03:33:59.003Z,34.29
2023-01-09T03:34:29.016Z,34.25
2023-01-09T03:34:59.047Z,34.28
2023-01-09T03:35:29.069Z,34.31
2023-01-09T03:35:59.105Z,34.34
2023-01-09T03:36:29.131Z,34.36
2023-01-09T03:36:59.161Z,34.37
2023-01-09T03:37:29.196Z,34.36
2023-01-09T03:37:59.236Z,34.37
2023-01-09T03:38:29.247Z,34.34
2023-01-09T03:38:59.292Z,34.35
2023-01-09T03:39:29.294Z,34.37
2023-01-09T03:39:59.348Z,34.38
2023-01-09T03:40:29.344Z,34.37
2023-01-09T03:40:59.388Z,34.40
2023-01-09T03:41:29.414Z,34.35
2023-01-09T03:41:59.438Z,34.41
2023-01-09T03:42:29.466Z,34.36
2023-01-09T03:42:59.490Z,34.41
2023-01-09T03:43:29.527Z,34.41
2023-01-09T03:43:59.559Z,34.43
2023-01-09T03:44:29.671Z,34.41
2023-01-09T03:44:59.798Z,34.43
2023-01-09T03:45:29.938Z,34.45
2023-01-09T03:46:00.014Z,34.45
2023-01-09T03:46:29.917Z,34.47
2023-01-09T03:47:00.025Z,34.42
2023-01-09T03:47:30.134Z,34.47
2023-01-09T03:48:00.248Z,34.51
2023-01-09T03:48:30.358Z,34.51
2023-01-09T03:49:00.476Z,34.49
2023-01-09T03:49:30.600Z,34.50
2023-01-09T03:50:00.701Z,34.49
2023-01-09T03:50:30.819Z,34.52
2023-01-09T03:51:00.823Z,34.48
2023-01-09T03:51:30.815Z,34.49
2023-01-09T03:52:00.920Z,34.55
2023-01-09T03:52:31.036Z,34.54
2023-01-09T03:53:01.148Z,34.55
2023-01-09T03:53:31.267Z,34.53
2023-01-09T03:54:01.378Z,34.53
2023-01-09T03:54:31.400Z,34.49
2023-01-09T03:55:01.433Z,34.54
2023-01-09T03:55:31.482Z,34.55
2023-01-09T03:56:01.487Z,34.55
2023-01-09T03:56:31.517Z,34.53
2023-01-09T03:57:01.547Z,34.54
2023-01-09T03:57:31.566Z,34.53
2023-01-09T03:58:01.589Z,34.53
2023-01-09T03:58:31.616Z,34.58
2023-01-09T03:59:01.644Z,34.53
2023-01-09T03:59:31.675Z,34.56
2023-01-09T04:00:01.734Z,34.57
2023-01-09T04:00:31.730Z,34.52
2023-01-09T04:01:01.987Z,34.54
2023-01-09T04:01:32.011Z,34.53
2023-01-09T04:02:03.908Z,34.52
2023-01-09T04:02:31.898Z,34.54
2023-01-09T04:03:01.925Z,34.54
2023-01-09T04:03:32.011Z,34.54
2023-01-09T04:04:02.091Z,34.61
2023-01-09T04:04:32.060Z,34.54
2023-01-09T04:05:02.091Z,34.54
2023-01-09T04:05:32.116Z,34.56
2023-01-09T04:06:02.150Z,34.54
2023-01-09T04:06:32.170Z,34.56
2023-01-09T04:07:02.215Z,34.52
2023-01-09T04:07:32.225Z,34.56
2023-01-09T04:08:02.257Z,34.55
2023-01-09T04:08:32.274Z,34.59
2023-01-09T04:09:02.299Z,34.59
2023-01-09T04:09:32.328Z,34.54
2023-01-09T04:10:02.357Z,34.56
2023-01-09T04:10:32.396Z,34.55
2023-01-09T04:11:02.463Z,34.52
2023-01-09T04:11:32.464Z,34.56
2023-01-09T04:12:02.489Z,34.50
2023-01-09T04:12:32.506Z,34.56
2023-01-09T04:13:02.535Z,34.54
2023-01-09T04:13:32.560Z,34.53
2023-01-09T04:14:02.591Z,34.53
2023-01-09T04:14:32.619Z,34.58
2023-01-09T04:15:02.644Z,34.52
2023-01-09T04:15:32.675Z,34.50
2023-01-09T04:16:02.759Z,34.47
2023-01-09T04:16:32.860Z,34.49
2023-01-09T04:17:02.883Z,34.60
2023-01-09T04:17:32.908Z,34.56
2023-01-09T04:18:02.946Z,34.50
2023-01-09T04:18:32.972Z,34.50
2023-01-09T04:19:02.995Z,34.54
2023-01-09T04:19:33.023Z,34.50
2023-01-09T04:20:03.052Z,34.52
2023-01-09T04:20:33.092Z,34.52
2023-01-09T04:21:03.118Z,34.49
2023-01-09T04:21:33.146Z,34.49
2023-01-09T04:22:03.186Z,34.52
2023-01-09T04:22:33.208Z,34.54
2023-01-09T04:23:03.225Z,34.46
2023-01-09T04:23:33.247Z,34.49
2023-01-09T04:24:03.274Z,34.46
2023-01-09T04:24:33.297Z,34.47
2023-01-09T04:25:03.331Z,34.49
2023-01-09T04:25:33.351Z,34.48
2023-01-09T04:26:03.378Z,34.48
2023-01-09T04:26:33.435Z,34.46
2023-01-09T04:27:03.431Z,34.43
2023-01-09T04:27:33.452Z,34.43
2023-01-09T04:28:03.489Z,34.42
2023-01-09T04:28:33.508Z,34.42
2023-01-09T04:29:03.529Z,34.41
2023-01-09T04:29:33.572Z,34.39
2023-01-09T04:30:03.609Z,34.39
2023-01-09T04:30:33.629Z,34.38
2023-01-09T04:31:03.666Z,34.36
2023-01-09T04:31:33.756Z,34.35
2023-01-09T04:32:03.790Z,34.32
2023-01-09T04:32:33.831Z,34.30
2023-01-09T04:33:03.857Z,34.37
2023-01-09T04:33:33.881Z,34.30
2023-01-09T04:34:03.921Z,34.22
2023-01-09T04:34:33.941Z,34.24
2023-01-09T04:35:03.963Z,34.25
2023-01-09T04:35:33.983Z,34.31
2023-01-09T04:36:04.035Z,34.30
2023-01-09T04:36:34.056Z,34.27
2023-01-09T04:37:04.093Z,34.26
2023-01-09T04:37:34.117Z,34.24
2023-01-09T04:38:04.162Z,34.24
2023-01-09T04:38:34.183Z,34.26
2023-01-09T04:39:04.207Z,34.30
2023-01-09T04:39:34.237Z,34.27
2023-01-09T04:40:04.257Z,34.26
2023-01-09T04:40:34.277Z,34.25
2023-01-09T04:41:04.311Z,34.26
2023-01-09T04:41:34.363Z,34.22
2023-01-09T04:42:04.401Z,34.25
2023-01-09T04:42:34.403Z,34.21
2023-01-09T04:43:04.431Z,34.19
2023-01-09T04:43:34.470Z,34.17
2023-01-09T04:44:04.471Z,34.28
2023-01-09T04:44:34.609Z,34.24
2023-01-09T04:45:04.704Z,34.22
2023-01-09T04:45:34.918Z,34.33
2023-01-09T04:46:05.005Z,34.27
2023-01-09T04:46:35.026Z,34.34
2023-01-09T04:47:05.109Z,34.33
2023-01-09T04:47:35.221Z,34.29
2023-01-09T04:48:05.331Z,34.32
2023-01-09T04:48:35.519Z,34.26
2023-01-09T04:49:05.485Z,34.39
2023-01-09T04:49:35.478Z,34.29
2023-01-09T04:50:05.622Z,34.34
2023-01-09T04:50:35.717Z,34.36
2023-01-09T04:51:05.829Z,34.30
2023-01-09T04:51:35.953Z,34.37
2023-01-09T04:52:06.062Z,34.41
2023-01-09T04:52:38.792Z,34.41
2023-01-09T04:53:06.278Z,34.44
2023-01-09T04:53:36.408Z,34.43
2023-01-09T04:54:06.389Z,34.44
2023-01-09T04:54:36.413Z,34.46
2023-01-09T04:55:06.443Z,34.48
2023-01-09T04:55:36.468Z,34.46
2023-01-09T04:56:06.492Z,34.43
2023-01-09T04:56:36.538Z,34.49
2023-01-09T04:57:06.543Z,34.55
2023-01-09T04:57:36.704Z,34.49
2023-01-09T04:58:06.574Z,34.52
2023-01-09T04:58:36.594Z,34.42
2023-01-09T04:59:06.615Z,34.43
2023-01-09T04:59:36.638Z,34.44
2023-01-09T05:00:06.660Z,34.43
2023-01-09T05:00:36.687Z,34.36
2023-01-09T05:01:06.808Z,34.33
2023-01-09T05:01:36.876Z,34.35
2023-01-09T05:02:06.955Z,34.35
2023-01-09T05:02:36.890Z,34.32
2023-01-09T05:03:06.931Z,34.27
2023-01-09T05:03:36.937Z,34.28
2023-01-09T05:04:07.044Z,34.26
2023-01-09T05:04:37.113Z,34.18
2023-01-09T05:05:09.745Z,34.27
2023-01-09T05:05:37.190Z,34.23
2023-01-09T05:06:07.215Z,34.25
2023-01-09T05:06:37.257Z,34.21
2023-01-09T05:07:07.273Z,34.14
2023-01-09T05:07:37.292Z,34.18
2023-01-09T05:08:07.314Z,34.17
2023-01-09T05:08:37.361Z,34.18
2023-01-09T05:09:07.402Z,34.14
2023-01-09T05:09:37.403Z,34.09
2023-01-09T05:10:07.430Z,34.06
2023-01-09T05:10:37.450Z,33.95
2023-01-09T05:11:07.472Z,33.99
2023-01-09T05:11:37.504Z,33.92
2023-01-09T05:12:07.537Z,33.85
2023-01-09T05:12:37.559Z,33.93
2023-01-09T05:13:07.604Z,33.90
2023-01-09T05:13:37.619Z,33.87
2023-01-09T05:14:07.643Z,33.89
2023-01-09T05:14:37.661Z,33.90
2023-01-09T05:15:07.689Z,33.79
2023-01-09T05:15:37.756Z,33.78
2023-01-09T05:16:07.840Z,33.81
2023-01-09T05:16:37.887Z,33.93
2023-01-09T05:17:07.913Z,33.92
2023-01-09T05:17:37.958Z,33.84
2023-01-09T05:18:07.968Z,33.91
2023-01-09T05:18:38.000Z,33.90
2023-01-09T05:19:08.018Z,33.88
2023-01-09T05:19:38.050Z,33.88
2023-01-09T05:20:08.088Z,34.06
2023-01-09T05:20:38.102Z,33.98
2023-01-09T05:21:08.135Z,33.99
2023-01-09T05:21:38.159Z,34.02
2023-01-09T05:22:08.183Z,34.12
2023-01-09T05:22:38.209Z,34.12
2023-01-09T05:23:08.236Z,34.23
2023-01-09T05:23:38.275Z,34.32
2023-01-09T05:24:08.293Z,34.23
2023-01-09T05:24:38.324Z,34.29
2023-01-09T05:25:08.348Z,34.25
2023-01-09T05:25:38.374Z,34.25
2023-01-09T05:26:08.404Z,34.24
2023-01-09T05:26:38.429Z,34.35
2023-01-09T05:27:08.454Z,34.79
2023-01-09T05:27:38.482Z,35.07
2023-01-09T05:28:08.508Z,34.94
2023-01-09T05:28:38.559Z,34.50
2023-01-09T05:29:08.556Z,34.62
2023-01-09T05:29:38.594Z,34.59
2023-01-09T05:30:08.620Z,34.52
2023-01-09T05:30:38.632Z,34.38
2023-01-09T05:31:08.671Z,34.50
2023-01-09T05:31:38.768Z,34.47
2023-01-09T05:32:08.788Z,34.91
2023-01-09T05:32:38.817Z,34.70
2023-01-09T05:33:08.850Z,34.65
2023-01-09T05:33:38.877Z,34.87
2023-01-09T05:34:08.899Z,34.70
2023-01-09T05:34:38.920Z,34.63
2023-01-09T05:35:08.944Z,34.63
2023-01-09T05:35:38.971Z,34.62
2023-01-09T05:36:09.012Z,34.54
2023-01-09T05:36:39.037Z,34.59
2023-01-09T05:37:09.071Z,34.56
2023-01-09T05:37:39.111Z,34.58
2023-01-09T05:38:09.134Z,34.74
2023-01-09T05:38:39.168Z,34.68
2023-01-09T05:39:09.205Z,34.80
2023-01-09T05:39:39.249Z,34.75
2023-01-09T05:40:09.258Z,34.70
2023-01-09T05:40:40.572Z,34.54
2023-01-09T05:41:09.356Z,34.48
2023-01-09T05:41:39.393Z,34.44
2023-01-09T05:42:09.426Z,34.43
2023-01-09T05:42:39.446Z,34.36
2023-01-09T05:43:09.472Z,34.38
2023-01-09T05:43:39.514Z,34.23
2023-01-09T05:44:09.528Z,34.32
2023-01-09T05:44:39.614Z,34.35
2023-01-09T05:45:09.726Z,34.48
2023-01-09T05:45:39.902Z,34.42
2023-01-09T05:46:10.002Z,34.34
2023-01-09T05:46:39.887Z,34.18
2023-01-09T05:47:10.001Z,34.13
2023-01-09T05:47:40.127Z,34.32
2023-01-09T05:48:10.230Z,34.48
2023-01-09T05:48:40.344Z,34.38
2023-01-09T05:49:10.446Z,34.54
2023-01-09T05:49:40.620Z,35.01
2023-01-09T05:50:10.636Z,35.02
2023-01-09T05:50:40.746Z,35.37
2023-01-09T05:51:10.869Z,35.25
2023-01-09T05:51:40.974Z,34.98
2023-01-09T05:52:11.099Z,34.64
2023-01-09T05:52:41.199Z,34.54
2023-01-09T05:53:11.211Z,34.32
2023-01-09T05:53:41.337Z,34.40
2023-01-09T05:54:11.322Z,34.57
2023-01-09T05:54:41.352Z,34.69
2023-01-09T05:55:11.385Z,34.66
2023-01-09T05:55:41.422Z,34.74
2023-01-09T05:56:11.973Z,34.72
2023-01-09T05:56:41.557Z,34.69
2023-01-09T05:57:11.608Z,34.72
2023-01-09T05:57:41.624Z,34.68
2023-01-09T05:58:11.652Z,34.63
2023-01-09T05:58:41.689Z,34.59
2023-01-09T05:59:11.714Z,34.54
2023-01-09T05:59:41.764Z,34.19
2023-01-09T06:00:11.764Z,34.47
2023-01-09T06:00:41.791Z,34.49
2023-01-09T06:01:11.880Z,34.49
2023-01-09T06:01:41.975Z,34.37
2023-01-09T06:02:12.074Z,34.40
2023-01-09T06:02:42.386Z,34.23
2023-01-09T06:03:12.211Z,34.20
2023-01-09T06:03:42.122Z,34.20
2023-01-09T06:04:12.169Z,34.23
2023-01-09T06:04:42.193Z,34.17
2023-01-09T06:05:12.209Z,34.10
2023-01-09T06:05:42.244Z,34.10
2023-01-09T06:06:12.269Z,34.10
2023-01-09T06:06:42.328Z,34.10
2023-01-09T06:07:15.523Z,34.03
2023-01-09T06:07:42.418Z,34.10
2023-01-09T06:08:12.447Z,34.07
2023-01-09T06:08:42.490Z,34.00
2023-01-09T06:09:12.532Z,34.09
2023-01-09T06:09:42.548Z,34.07
2023-01-09T06:10:12.576Z,33.97
2023-01-09T06:10:42.613Z,34.00
2023-01-09T06:11:12.646Z,34.07
2023-01-09T06:11:42.698Z,34.05
2023-01-09T06:12:12.718Z,34.00
2023-01-09T06:12:42.741Z,33.94
2023-01-09T06:13:12.763Z,34.04
2023-01-09T06:13:42.784Z,34.00
2023-01-09T06:14:12.826Z,33.96
2023-01-09T06:14:42.843Z,33.99
2023-01-09T06:15:12.899Z,34.00
2023-01-09T06:15:42.968Z,34.04
2023-01-09T06:16:13.122Z,34.05
2023-01-09T06:16:43.010Z,33.99
2023-01-09T06:17:13.026Z,34.05
2023-01-09T06:17:43.065Z,33.97
2023-01-09T06:18:13.085Z,34.02
2023-01-09T06:18:43.111Z,33.99
2023-01-09T06:19:13.138Z,34.04
2023-01-09T06:19:43.152Z,33.99
2023-01-09T06:20:13.185Z,33.96
2023-01-09T06:20:43.225Z,33.91
2023-01-09T06:21:13.272Z,33.88
2023-01-09T06:21:43.311Z,33.89
2023-01-09T06:22:13.334Z,33.93
2023-01-09T06:22:43.373Z,33.86
2023-01-09T06:23:13.897Z,33.84
2023-01-09T06:23:43.387Z,33.86
2023-01-09T06:24:13.414Z,33.88
2023-01-09T06:24:43.455Z,33.88
2023-01-09T06:25:13.458Z,33.86
2023-01-09T06:25:43.486Z,33.88
2023-01-09T06:26:13.523Z,33.92
2023-01-09T06:26:43.542Z,33.83